Torre De Belem — CSIO — position and weather

sailwx.info

Track history (hours):
 
Tides and Currents Weather Stations Pressure Air Temp Water Temp Dewpoint Dewpoint Depression Visibility Wind Speed Wind Dir Waves Ship Positions

Torre De Belem

Last reported at 2018-May-23 08:32 UTC. Time now 2018-May-23 10:32 UTC.
Position N 38°42' W 009°25'.

Length 14 m.

MMSI: 263671850.

Date/timePositionNaut miles runAvg speedWind from/ knotsBaromVisibWave heightAir tempDewpointWater temp
2018-May-23 08:32N 38°42' W 009°25'0 0.0
2018-May-23 08:30N 38°42' W 009°25'0 0.0
2018-May-22 21:04N 38°42' W 009°25'0 5.9
2018-May-22 21:00N 38°41' W 009°25'0 0.6
2018-May-22 20:26N 38°42' W 009°25'0 0.0
2018-May-22 20:00N 38°42' W 009°25'0 0.0
2018-May-22 19:28N 38°42' W 009°25'3 5.7
2018-May-22 19:00N 38°39' W 009°25'3 0.1
2018-May-21 04:49N 38°42' W 009°25'0 0.3
2018-May-21 04:30N 38°42' W 009°25'0 0.0
2018-May-20 23:11N 38°42' W 009°25'1 7.7
2018-May-20 23:00N 38°41' W 009°24'3 5.6
2018-May-20 22:30N 38°38' W 009°23'4 0.3
2018-May-20 09:02N 38°42' W 009°25'0 0.0
2018-May-20 09:00N 38°42' W 009°25'0 0.0
2018-May-19 04:40N 38°42' W 009°25'211.5
2018-May-19 04:30N 38°40' W 009°24'2 0.2
2018-May-18 20:16N 38°42' W 009°25'414.2
2018-May-18 20:00N 38°38' W 009°23'4 7.5
2018-May-18 19:30N 38°42' W 009°25'0 0.8
2018-May-18 19:00N 38°41' W 009°25'0 0.1
2018-May-18 15:13N 38°42' W 009°25'2 8.8
2018-May-18 15:00N 38°40' W 009°23'714.3
2018-May-18 14:30N 38°42' W 009°14'0 0.0
2018-May-18 14:01N 38°42' W 009°14'0 0.0
2018-May-18 13:30N 38°42' W 009°14'0 0.0
2018-May-18 12:59N 38°42' W 009°14'0 0.0
2018-May-18 12:29N 38°42' W 009°14'0 0.0
2018-May-18 12:00N 38°42' W 009°14'0 0.0
2018-May-18 11:30N 38°42' W 009°14'0 0.0
2018-May-18 11:01N 38°42' W 009°14'0 0.0
2018-May-18 10:31N 38°42' W 009°14'0 0.0
2018-May-18 10:00N 38°42' W 009°14'0 0.0
2018-May-18 09:31N 38°42' W 009°14'2 4.2
2018-May-18 09:01N 38°41' W 009°12'2 3.7
2018-May-18 08:30N 38°41' W 009°14'2 3.6
2018-May-18 07:58N 38°42' W 009°16'714.4
2018-May-18 07:28N 38°38' W 009°24'4 8.3
2018-May-18 06:59N 38°42' W 009°25'0 0.0
2018-May-18 02:13N 38°42' W 009°25'313.8
2018-May-18 02:01N 38°39' W 009°26'3 0.2
2018-May-17 13:23N 38°42' W 009°25'0 0.8
2018-May-17 13:00N 38°41' W 009°25'0 0.0
2018-May-16 23:38N 38°42' W 009°25'1 5.1
2018-May-16 23:30N 38°41' W 009°24'1 2.1
2018-May-16 23:00N 38°40' W 009°24'2 0.5
2018-May-16 19:25N 38°42' W 009°25'2 5.0
2018-May-16 19:00N 38°40' W 009°25'2 0.1
2018-May-16 02:13N 38°42' W 009°25'1 7.2
2018-May-16 02:00N 38°40' W 009°25'1 3.0
2018-May-16 01:30N 38°42' W 009°25'510.2
2018-May-16 01:00N 38°37' W 009°23'510.6
2018-May-16 00:30N 38°42' W 009°25'0 0.0
2018-May-16 00:00N 38°42' W 009°25'0 0.0
2018-May-15 23:30N 38°42' W 009°25'0 0.0
2018-May-15 22:59N 38°42' W 009°25'0 0.0
2018-May-15 22:30N 38°42' W 009°25'1 2.1
2018-May-15 22:00N 38°41' W 009°25'1 0.0
2018-May-15 05:25N 38°41' W 009°25'1 0.0
2018-May-14 12:49N 38°42' W 009°25'514.2
2018-May-14 12:27N 38°37' W 009°23'5 1.3
2018-May-14 08:28N 38°42' W 009°25'0 0.0
2018-May-14 08:00N 38°42' W 009°25'0 0.0
2018-May-14 05:35N 38°42' W 009°25'0 5.4
2018-May-14 05:30N 38°41' W 009°25'  
Track history (hours):
 
Tides and Currents Weather Stations Pressure Air Temp Water Temp Dewpoint Dewpoint Depression Visibility Wind Speed Wind Dir Waves Ship Positions

Torre De Belem

Last reported at 2018-May-23 08:32 UTC. Time now 2018-May-23 10:32 UTC.
Position N 38°42' W 009°25'.

Length 14 m.

MMSI: 263671850.

Date/timePositionNaut miles runAvg speedWind from/ knotsBaromVisibWave heightAir tempDewpointWater temp
2018-May-23 08:32N 38°42' W 009°25'0 0.0
2018-May-23 08:30N 38°42' W 009°25'0 0.0
2018-May-22 21:04N 38°42' W 009°25'0 5.9
2018-May-22 21:00N 38°41' W 009°25'0 0.6
2018-May-22 20:26N 38°42' W 009°25'0 0.0
2018-May-22 20:00N 38°42' W 009°25'0 0.0
2018-May-22 19:28N 38°42' W 009°25'3 5.7
2018-May-22 19:00N 38°39' W 009°25'3 0.1
2018-May-21 04:49N 38°42' W 009°25'0 0.3
2018-May-21 04:30N 38°42' W 009°25'0 0.0
2018-May-20 23:11N 38°42' W 009°25'1 7.7
2018-May-20 23:00N 38°41' W 009°24'3 5.6
2018-May-20 22:30N 38°38' W 009°23'4 0.3
2018-May-20 09:02N 38°42' W 009°25'0 0.0
2018-May-20 09:00N 38°42' W 009°25'0 0.0
2018-May-19 04:40N 38°42' W 009°25'211.5
2018-May-19 04:30N 38°40' W 009°24'2 0.2
2018-May-18 20:16N 38°42' W 009°25'414.2
2018-May-18 20:00N 38°38' W 009°23'4 7.5
2018-May-18 19:30N 38°42' W 009°25'0 0.8
2018-May-18 19:00N 38°41' W 009°25'0 0.1
2018-May-18 15:13N 38°42' W 009°25'2 8.8
2018-May-18 15:00N 38°40' W 009°23'714.3
2018-May-18 14:30N 38°42' W 009°14'0 0.0
2018-May-18 14:01N 38°42' W 009°14'0 0.0
2018-May-18 13:30N 38°42' W 009°14'0 0.0
2018-May-18 12:59N 38°42' W 009°14'0 0.0
2018-May-18 12:29N 38°42' W 009°14'0 0.0
2018-May-18 12:00N 38°42' W 009°14'0 0.0
2018-May-18 11:30N 38°42' W 009°14'0 0.0
2018-May-18 11:01N 38°42' W 009°14'0 0.0
2018-May-18 10:31N 38°42' W 009°14'0 0.0
2018-May-18 10:00N 38°42' W 009°14'0 0.0
2018-May-18 09:31N 38°42' W 009°14'2 4.2
2018-May-18 09:01N 38°41' W 009°12'2 3.7
2018-May-18 08:30N 38°41' W 009°14'2 3.6
2018-May-18 07:58N 38°42' W 009°16'714.4
2018-May-18 07:28N 38°38' W 009°24'4 8.3
2018-May-18 06:59N 38°42' W 009°25'0 0.0
2018-May-18 02:13N 38°42' W 009°25'313.8
2018-May-18 02:01N 38°39' W 009°26'3 0.2
2018-May-17 13:23N 38°42' W 009°25'0 0.8
2018-May-17 13:00N 38°41' W 009°25'0 0.0
2018-May-16 23:38N 38°42' W 009°25'1 5.1
2018-May-16 23:30N 38°41' W 009°24'1 2.1
2018-May-16 23:00N 38°40' W 009°24'2 0.5
2018-May-16 19:25N 38°42' W 009°25'2 5.0
2018-May-16 19:00N 38°40' W 009°25'2 0.1
2018-May-16 02:13N 38°42' W 009°25'1 7.2
2018-May-16 02:00N 38°40' W 009°25'1 3.0
2018-May-16 01:30N 38°42' W 009°25'510.2
2018-May-16 01:00N 38°37' W 009°23'510.6
2018-May-16 00:30N 38°42' W 009°25'0 0.0
2018-May-16 00:00N 38°42' W 009°25'0 0.0
2018-May-15 23:30N 38°42' W 009°25'0 0.0
2018-May-15 22:59N 38°42' W 009°25'0 0.0
2018-May-15 22:30N 38°42' W 009°25'1 2.1
2018-May-15 22:00N 38°41' W 009°25'1 0.0
2018-May-15 05:25N 38°41' W 009°25'1 0.0
2018-May-14 12:49N 38°42' W 009°25'514.2
2018-May-14 12:27N 38°37' W 009°23'5 1.3
2018-May-14 08:28N 38°42' W 009°25'0 0.0
2018-May-14 08:00N 38°42' W 009°25'0 0.0
2018-May-14 05:35N 38°42' W 009°25'0 5.4
2018-May-14 05:30N 38°41' W 009°25'  

Dump ship's entire track history